메인 페이지
METAR-TAF:

METAR-TAF

공항 :

샌프란시스코 국제공항

샌프란시스코, 캘리포니아, 미국

위도: 37-37-11N, 경도: 122-21-53W, 고도: 3m

현재 날씨관측

예보는 56분 전, 01:56시(UTC)에 발표되었습니다.
10kt
온도 13°C
습도 67%
기압 1024 hPa
시정: 16.1km
고도 20000ft 상공 구름 조금

METAR: KSFO 130156Z 27010KT 10SM FEW200 13/07 A3025 RMK AO2 SLP242 T01330067

시각: 18:52 (02:52 UTC)

예보

예보는 3 시간 30분 전, 23:22시(UTC)에 발표되었습니다.
예보 대상 시간: 13일 00시부터 14일 06시까지 (UTC)
서북서12kt
시정: 10km
고도 20000ft 상공 구름 보통
13일 0200시부터 (UTC)
서북서8kt
시정: 10km
고도 20000ft 상공 구름 조금
13일 0900시부터 (UTC)
남동5kt
시정: 10km
고도 1000ft 상공 구름 조금
고도 20000ft 상공 구름 조금
13일 1700시부터 (UTC)
6kt
시정: 10km
고도 25000ft 상공 구름 보통

TAF: KSFO 122322Z 1300/1406 29012KT P6SM SCT200 FM130200 29008KT P6SM FEW200 FM130900 14005KT P6SM FEW010 FEW200 FM131700 08006KT P6SM SCT250

4,000개 이상의 공항 관측 자료 및 예보 (METAR 및 TAF 보고).

지도상에서 검색 가능한 기상관측소가 노란 점과 빨간 점으로 표시되어 있습니다.

기상관측소 명을 보려면 표시 위로 마우스를 이동하세요.

날씨 관측과 예보를 보려면 클릭하세요.

지도 변경 : 확대하려면 엑스 표시가 있는 녹색 버튼, 축소하려면 빼기 표시가 있는 녹색 버튼, 다음 페이지의 지도를 보려면 녹색 화살표를 클릭하세요.


METAR-TAF: